Time;durP1;ratioP1;P1;durP2;ratioP2;P2;SDS_P1;SDS_P2;PMS_P1;PMS_P2;Temp;Humidity;BMP_temperature;BMP_pressure;BME280_temperature;BME280_humidity;BME280_pressure;Samples;Min_cycle;Max_cycle;Signal;HPM_P1;HPM_P2
2023/10/30 00:00:48;;;;;;;7.03;4.00;;;;;;;14.20;72.42;97479.88;4990665;28;20700;-69
2023/10/30 00:03:16;;;;;;;9.33;5.03;;;;;;;14.18;72.60;97480.91;4988647;28;20194;-69
2023/10/30 00:05:43;;;;;;;9.60;4.83;;;;;;;14.25;73.04;97483.09;4971892;28;20195;-70
2023/10/30 00:08:11;;;;;;;9.97;4.93;;;;;;;14.41;72.11;97477.91;4971057;28;20261;-70
2023/10/30 00:10:38;;;;;;;8.93;4.43;;;;;;;14.41;71.62;97486.56;4971473;28;20915;-70
2023/10/30 00:13:07;;;;;;;8.10;3.50;;;;;;;13.92;72.87;97479.66;4971648;28;20669;-70
2023/10/30 00:15:34;;;;;;;8.90;4.70;;;;;;;13.75;73.31;97477.06;4971394;28;20282;-70
2023/10/30 00:18:01;;;;;;;6.90;4.43;;;;;;;13.56;74.51;97486.75;4972557;28;20267;-71
2023/10/30 00:20:28;;;;;;;9.83;4.57;;;;;;;13.47;75.38;97484.59;4988142;28;20195;-73
2023/10/30 00:22:56;;;;;;;8.37;4.30;;;;;;;13.47;75.07;97466.38;4989736;28;20187;-71
2023/10/30 00:25:23;;;;;;;6.90;4.37;;;;;;;13.53;75.47;97473.88;4988139;28;20215;-70
2023/10/30 00:27:53;;;;;;;8.67;4.70;;;;;;;13.68;75.05;97471.31;4972267;28;20227;-72
2023/10/30 00:30:20;;;;;;;7.80;3.63;;;;;;;13.70;75.18;97463.47;4970766;28;20199;-77
2023/10/30 00:32:47;;;;;;;8.10;4.93;;;;;;;13.83;74.85;97465.34;4955355;28;20254;-75
2023/10/30 00:35:17;;;;;;;8.67;4.13;;;;;;;13.94;74.71;97470.00;4972070;28;20566;-75
2023/10/30 00:37:45;;;;;;;9.63;5.63;;;;;;;14.11;73.32;97477.78;4988047;28;20187;-72
2023/10/30 00:40:12;;;;;;;8.00;4.50;;;;;;;14.09;73.77;97478.75;4989595;28;20202;-72
2023/10/30 00:42:39;;;;;;;5.37;4.23;;;;;;;14.18;73.25;97486.94;4987871;28;20266;-74
2023/10/30 00:45:08;;;;;;;6.20;4.20;;;;;;;14.24;72.40;97464.94;4989238;28;20661;-69
2023/10/30 00:47:38;;;;;;;10.47;5.70;;;;;;;14.16;73.06;97477.50;4970413;28;20211;-69
2023/10/30 00:50:07;;;;;;;9.10;5.40;;;;;;;14.37;72.74;97490.28;4988550;28;20233;-69
2023/10/30 00:52:34;;;;;;;9.50;4.60;;;;;;;14.13;73.12;97473.31;4971435;28;20240;-70
2023/10/30 00:55:02;;;;;;;12.47;4.53;;;;;;;13.99;73.49;97480.16;4970201;28;20581;-69
2023/10/30 00:57:30;;;;;;;10.10;5.13;;;;;;;13.72;74.30;97454.63;4971821;28;20279;-68
2023/10/30 00:59:59;;;;;;;10.27;5.60;;;;;;;13.68;74.69;97480.91;4970161;28;20691;-69
2023/10/30 01:02:26;;;;;;;12.93;5.23;;;;;;;13.74;74.56;97454.56;4972177;28;20270;-69
2023/10/30 01:04:54;;;;;;;6.77;4.80;;;;;;;13.97;74.41;97475.06;4970206;28;20198;-69
2023/10/30 01:07:22;;;;;;;8.63;5.67;;;;;;;14.02;74.60;97472.19;4970953;28;20266;-69
2023/10/30 01:09:50;;;;;;;9.13;5.00;;;;;;;14.10;73.60;97472.63;4988553;28;20194;-70
2023/10/30 01:12:19;;;;;;;8.67;5.83;;;;;;;14.08;73.71;97451.03;4987496;28;20191;-69
2023/10/30 01:14:50;;;;;;;7.13;4.70;;;;;;;14.29;73.34;97476.81;4971198;28;20207;-70
2023/10/30 01:17:19;;;;;;;8.83;4.97;;;;;;;13.97;74.08;97464.63;4953259;28;20623;-70
2023/10/30 01:19:46;;;;;;;11.87;5.40;;;;;;;13.62;75.46;97455.22;4988415;28;20199;-70
2023/10/30 01:22:14;;;;;;;9.00;4.60;;;;;;;13.64;75.51;97448.16;4987127;28;20278;-73
2023/10/30 01:24:42;;;;;;;7.27;4.83;;;;;;;13.83;75.01;97470.53;4971014;28;20222;-69
2023/10/30 01:27:09;;;;;;;4.93;3.37;;;;;;;13.72;76.04;97453.81;4970727;28;20196;-73
2023/10/30 01:29:38;;;;;;;10.20;5.27;;;;;;;13.60;75.92;97446.63;4987345;28;20213;-69
2023/10/30 01:32:06;;;;;;;5.97;3.80;;;;;;;13.81;76.11;97461.97;4954722;28;20222;-71
2023/10/30 01:34:34;;;;;;;5.67;3.73;;;;;;;13.70;76.89;97469.47;4986419;28;20291;-70
2023/10/30 01:37:01;;;;;;;7.30;4.37;;;;;;;13.44;76.85;97462.16;4988374;28;20277;-71
2023/10/30 01:39:29;;;;;;;8.53;4.03;;;;;;;13.41;77.15;97458.88;4986825;28;20230;-71
2023/10/30 01:41:57;;;;;;;5.43;3.70;;;;;;;13.45;77.60;97448.25;4988050;28;20190;-70
2023/10/30 01:44:24;;;;;;;4.67;3.17;;;;;;;13.71;76.78;97455.56;4970006;28;20255;-69
2023/10/30 01:46:51;;;;;;;6.97;4.03;;;;;;;13.47;76.51;97420.41;4953685;28;20200;-69
2023/10/30 01:49:19;;;;;;;5.30;3.70;;;;;;;13.80;76.39;97455.09;4987835;28;20225;-70
2023/10/30 01:51:46;;;;;;;5.27;4.03;;;;;;;13.66;76.10;97433.31;4986770;28;20346;-70
2023/10/30 01:54:14;;;;;;;8.60;4.13;;;;;;;13.46;77.53;97430.84;4988185;28;20210;-69
2023/10/30 01:56:41;;;;;;;7.97;5.07;;;;;;;13.52;77.96;97448.75;4968887;28;20236;-70
2023/10/30 01:59:09;;;;;;;5.53;3.73;;;;;;;13.37;78.66;97449.56;4970602;28;20923;-69
2023/10/30 02:01:38;;;;;;;8.70;3.50;;;;;;;13.39;77.77;97442.50;4953553;28;20209;-69
2023/10/30 02:04:06;;;;;;;6.57;3.87;;;;;;;13.22;78.74;97432.09;4987032;28;20199;-71
2023/10/30 02:06:33;;;;;;;6.97;3.53;;;;;;;13.54;77.76;97454.75;4987559;28;20260;-69
2023/10/30 02:09:00;;;;;;;7.10;4.20;;;;;;;13.61;77.86;97448.31;4969034;28;20288;-71
2023/10/30 02:11:27;;;;;;;5.57;3.70;;;;;;;13.43;78.29;97454.44;4970331;28;20281;-69
2023/10/30 02:13:56;;;;;;;5.10;3.90;;;;;;;13.44;78.36;97445.72;4986186;28;20199;-70
2023/10/30 02:16:23;;;;;;;6.90;3.77;;;;;;;13.52;77.70;97462.63;4970287;28;20304;-70
2023/10/30 02:18:51;;;;;;;9.87;3.90;;;;;;;13.57;77.46;97451.97;4968741;28;20290;-70
2023/10/30 02:21:20;;;;;;;8.33;3.87;;;;;;;13.58;77.60;97438.88;4970211;28;20189;-70
2023/10/30 02:23:48;;;;;;;6.70;3.60;;;;;;;13.74;76.97;97450.22;4970244;28;20770;-67
2023/10/30 02:26:15;;;;;;;5.93;3.97;;;;;;;13.95;76.66;97461.25;4986586;28;20197;-70
2023/10/30 02:28:44;;;;;;;4.93;3.57;;;;;;;14.15;75.97;97462.81;4989682;28;20318;-72
2023/10/30 02:31:11;;;;;;;9.10;4.47;;;;;;;14.17;75.29;97458.38;4992665;28;20549;-69
2023/10/30 02:33:38;;;;;;;10.13;4.53;;;;;;;14.08;75.54;97448.41;4960518;28;20200;-69
2023/10/30 02:36:09;;;;;;;9.37;3.90;;;;;;;14.16;75.35;97465.31;4992657;28;20193;-69
2023/10/30 02:38:36;;;;;;;5.33;3.40;;;;;;;14.27;75.52;97467.38;4994013;28;20190;-68
2023/10/30 02:41:03;;;;;;;3.60;2.90;;;;;;;14.28;75.08;97451.69;4975939;28;20202;-70
2023/10/30 02:43:31;;;;;;;6.33;3.37;;;;;;;14.26;75.54;97461.31;4993329;28;20197;-70
2023/10/30 02:45:58;;;;;;;6.83;3.30;;;;;;;14.30;75.18;97455.03;4994040;28;20198;-70
2023/10/30 02:48:26;;;;;;;5.83;3.67;;;;;;;14.38;74.75;97437.25;4958833;28;20227;-70
2023/10/30 02:50:53;;;;;;;9.20;4.10;;;;;;;14.42;74.48;97449.19;4994013;28;20277;-69
2023/10/30 02:53:20;;;;;;;7.17;4.10;;;;;;;14.38;74.62;97442.47;4975288;28;20192;-72
2023/10/30 02:55:48;;;;;;;6.20;3.87;;;;;;;14.36;74.47;97433.03;4994161;28;20238;-70
2023/10/30 02:58:18;;;;;;;6.20;3.57;;;;;;;14.39;74.66;97448.50;4976468;28;20222;-71
2023/10/30 03:00:46;;;;;;;4.63;3.07;;;;;;;14.05;75.77;97446.84;4994216;28;20667;-69
2023/10/30 03:03:13;;;;;;;6.03;3.27;;;;;;;13.83;76.54;97448.88;4960814;28;20211;-72
2023/10/30 03:05:41;;;;;;;9.17;3.97;;;;;;;13.55;77.55;97433.00;4992613;28;20191;-67
2023/10/30 03:08:09;;;;;;;6.60;3.43;;;;;;;13.45;78.42;97440.44;4977464;28;20316;-69
2023/10/30 03:10:36;;;;;;;5.00;3.43;;;;;;;13.48;78.43;97453.28;4993166;28;20190;-69
2023/10/30 03:13:05;;;;;;;4.63;3.07;;;;;;;13.41;78.99;97448.47;4976559;28;20195;-67
2023/10/30 03:15:32;;;;;;;6.90;3.60;;;;;;;13.36;79.37;97458.25;4992591;28;20201;-67
2023/10/30 03:18:01;;;;;;;8.37;4.17;;;;;;;13.12;79.65;97423.09;4976298;28;20233;-68
2023/10/30 03:20:30;;;;;;;6.27;3.10;;;;;;;13.20;79.99;97428.75;4976485;28;20633;-69
2023/10/30 03:22:57;;;;;;;5.33;3.37;;;;;;;13.24;79.63;97427.66;4992633;28;20198;-69
2023/10/30 03:25:27;;;;;;;6.93;4.47;;;;;;;13.49;79.29;97443.72;4960172;28;20818;-68
2023/10/30 03:27:54;;;;;;;6.90;4.20;;;;;;;13.51;79.05;97458.34;4974519;28;20581;-71
2023/10/30 03:30:22;;;;;;;7.47;3.90;;;;;;;13.32;79.21;97431.56;4993101;28;20202;-68
2023/10/30 03:32:49;;;;;;;9.00;4.03;;;;;;;13.58;78.92;97443.28;4974891;28;20738;-70
2023/10/30 03:35:16;;;;;;;8.03;4.30;;;;;;;13.76;77.80;97442.31;4993645;28;20194;-72
2023/10/30 03:37:43;;;;;;;4.13;3.07;;;;;;;13.84;78.05;97453.16;4993246;28;20249;-70
2023/10/30 03:40:12;;;;;;;5.80;3.60;;;;;;;13.75;78.28;97451.03;4973175;28;20626;-69
2023/10/30 03:42:41;;;;;;;6.03;3.20;;;;;;;13.42;79.48;97452.75;4990684;28;20194;-68
2023/10/30 03:45:10;;;;;;;5.33;3.77;;;;;;;13.29;79.93;97436.09;4971607;28;20190;-69
2023/10/30 03:47:39;;;;;;;6.13;3.40;;;;;;;13.49;79.05;97448.94;4972238;28;20730;-71
2023/10/30 03:50:08;;;;;;;5.97;4.03;;;;;;;13.54;78.47;97437.34;4971214;28;20233;-68
2023/10/30 03:52:35;;;;;;;5.60;3.67;;;;;;;13.67;78.57;97447.97;4990268;28;20198;-68
2023/10/30 03:55:03;;;;;;;4.73;3.33;;;;;;;13.45;78.75;97432.66;4987829;28;20191;-69
2023/10/30 03:57:30;;;;;;;9.47;4.40;;;;;;;13.39;79.52;97445.13;4972045;28;20193;-68
2023/10/30 03:59:58;;;;;;;4.77;3.13;;;;;;;13.39;79.81;97450.31;4956466;28;20200;-70
2023/10/30 04:02:25;;;;;;;7.53;4.17;;;;;;;13.41;79.12;97440.69;4987556;28;20189;-69
2023/10/30 04:04:52;;;;;;;7.50;3.60;;;;;;;13.47;78.95;97451.63;4973126;28;20198;-73
2023/10/30 04:07:20;;;;;;;8.03;4.23;;;;;;;13.76;78.32;97453.59;4970791;28;20210;-71
2023/10/30 04:09:47;;;;;;;5.00;3.43;;;;;;;13.56;78.46;97451.13;4956448;28;20319;-72
2023/10/30 04:12:20;;;;;;;6.10;3.03;;;;;;;13.45;79.01;97460.41;4971082;28;20200;-72
2023/10/30 04:14:47;;;;;;;6.67;3.80;;;;;;;13.58;78.43;97459.69;4968505;28;20203;-77
2023/10/30 04:17:26;;;;;;;9.57;4.73;;;;;;;13.49;78.52;97454.13;4973063;28;20305;-76
2023/10/30 04:19:56;;;;;;;11.60;4.03;;;;;;;13.64;78.57;97458.56;4955937;28;20275;-74
2023/10/30 04:22:49;;;;;;;7.43;3.93;;;;;;;13.49;79.25;97461.94;4972894;28;20268;-75
2023/10/30 04:25:31;;;;;;;6.23;4.00;;;;;;;13.65;78.27;97462.84;4988541;28;20202;-71
2023/10/30 04:28:00;;;;;;;6.83;3.50;;;;;;;13.38;78.26;97394.84;4972683;28;20192;-74
2023/10/30 04:30:35;;;;;;;6.07;3.00;;;;;;;13.67;78.76;97451.44;4962440;28;20212;-73
2023/10/30 04:33:02;;;;;;;6.43;3.73;;;;;;;13.37;79.62;97457.34;4971390;28;20190;-72
2023/10/30 04:35:29;;;;;;;6.80;3.50;;;;;;;13.44;79.32;97450.91;4972333;28;20572;-70
2023/10/30 04:37:56;;;;;;;9.13;3.83;;;;;;;13.31;79.37;97439.47;4987627;28;20199;-72
2023/10/30 04:40:24;;;;;;;8.13;3.87;;;;;;;13.41;79.58;97444.13;4989537;28;20253;-70
2023/10/30 04:42:52;;;;;;;6.20;4.33;;;;;;;13.30;80.04;97440.34;4970194;28;20198;-72
2023/10/30 04:45:19;;;;;;;11.07;4.83;;;;;;;13.49;79.35;97454.97;4989173;28;20197;-72
2023/10/30 04:47:48;;;;;;;10.93;3.70;;;;;;;13.67;78.44;97464.44;4988449;28;20191;-71
2023/10/30 04:50:17;;;;;;;7.87;4.30;;;;;;;13.55;78.26;97449.47;4976411;28;20226;-69
2023/10/30 04:52:49;;;;;;;6.10;2.93;;;;;;;13.38;78.73;97446.00;4987183;28;20662;-72
2023/10/30 04:55:26;;;;;;;10.20;4.50;;;;;;;13.22;79.76;97466.75;4961508;28;20306;-73
2023/10/30 04:57:54;;;;;;;10.83;4.40;;;;;;;13.06;79.73;97439.84;4963840;28;20193;-70
2023/10/30 05:00:36;;;;;;;7.20;3.90;;;;;;;12.98;80.63;97462.75;4984573;28;20203;-77
2023/10/30 05:03:16;;;;;;;9.07;4.53;;;;;;;12.68;80.10;97413.06;4938007;28;20207;-71
2023/10/30 05:05:44;;;;;;;5.57;3.13;;;;;;;13.01;80.18;97460.81;4951507;28;20197;-70
2023/10/30 05:08:12;;;;;;;7.60;4.10;;;;;;;13.14;79.57;97465.44;4982094;28;20197;-71
2023/10/30 05:10:39;;;;;;;6.37;3.30;;;;;;;13.24;79.49;97471.88;4989111;28;20222;-69
2023/10/30 05:13:07;;;;;;;6.87;3.83;;;;;;;13.12;80.03;97464.69;4969560;28;20216;-70
2023/10/30 05:15:36;;;;;;;9.07;3.97;;;;;;;12.98;80.14;97460.94;4988860;28;20194;-74
2023/10/30 05:18:04;;;;;;;7.67;3.97;;;;;;;12.99;80.61;97462.66;4986932;28;20189;-70
2023/10/30 05:20:31;;;;;;;6.70;3.90;;;;;;;12.98;80.37;97463.56;4988871;28;20206;-71
2023/10/30 05:22:59;;;;;;;6.30;4.10;;;;;;;13.01;80.75;97478.16;4970088;28;20609;-70
2023/10/30 05:25:27;;;;;;;7.80;3.70;;;;;;;12.17;80.06;97327.25;4970865;28;20192;-69
2023/10/30 05:28:08;;;;;;;6.80;3.10;;;;;;;13.00;80.33;97477.31;4957169;28;20202;-74
2023/10/30 05:30:37;;;;;;;12.30;4.80;;;;;;;13.06;81.34;97469.25;4969295;28;20222;-70
2023/10/30 05:33:05;;;;;;;11.63;5.07;;;;;;;13.06;80.31;97461.44;4971454;28;20182;-70
2023/10/30 05:35:32;;;;;;;7.80;4.20;;;;;;;13.36;79.53;97464.31;4986653;28;20797;-74
2023/10/30 05:37:59;;;;;;;8.33;4.80;;;;;;;13.47;79.85;97472.44;4988753;28;20652;-75
2023/10/30 05:40:27;;;;;;;6.60;3.67;;;;;;;13.73;79.08;97479.75;4969686;28;20194;-75
2023/10/30 05:42:55;;;;;;;7.90;4.40;;;;;;;13.77;78.43;97470.88;4987988;28;20183;-72
2023/10/30 05:45:22;;;;;;;10.10;3.80;;;;;;;13.92;78.26;97456.22;4970055;28;20205;-76
2023/10/30 05:47:50;;;;;;;8.63;4.27;;;;;;;14.27;76.98;97483.84;4986478;28;20758;-73
2023/10/30 05:50:18;;;;;;;9.43;3.70;;;;;;;14.17;76.97;97458.38;4954292;28;20227;-71
2023/10/30 05:52:48;;;;;;;8.47;3.90;;;;;;;14.45;76.31;97476.81;4953758;28;20201;-75
2023/10/30 05:55:19;;;;;;;7.67;4.20;;;;;;;14.74;76.03;97485.66;4955350;28;20199;-73
2023/10/30 05:57:46;;;;;;;11.17;5.83;;;;;;;14.84;74.90;97484.25;4986663;28;20266;-75
2023/10/30 06:00:14;;;;;;;15.83;5.77;;;;;;;14.96;74.15;97484.38;4970407;28;20686;-76
2023/10/30 06:02:43;;;;;;;9.97;4.20;;;;;;;15.22;73.68;97496.81;4970225;28;20207;-77
2023/10/30 06:05:12;;;;;;;10.60;5.23;;;;;;;14.85;73.40;97420.72;4968846;28;20201;-72
2023/10/30 06:07:42;;;;;;;10.70;5.20;;;;;;;15.05;73.69;97475.19;4971063;28;20571;-76
2023/10/30 06:10:11;;;;;;;8.37;4.93;;;;;;;15.04;73.58;97473.53;4968333;28;20228;-73
2023/10/30 06:12:38;;;;;;;11.80;5.13;;;;;;;15.43;73.38;97508.66;4970717;28;20226;-76
2023/10/30 06:15:10;;;;;;;11.70;5.53;;;;;;;15.61;72.50;97492.84;4952932;28;20202;-78
2023/10/30 06:17:37;;;;;;;11.33;5.90;;;;;;;15.62;72.00;97486.72;4969940;28;20234;-75
2023/10/30 06:20:07;;;;;;;9.30;5.30;;;;;;;15.93;72.21;97503.09;4969958;28;20550;-72
2023/10/30 06:22:34;;;;;;;12.63;6.07;;;;;;;15.69;72.18;97493.25;4953148;28;20184;-73
2023/10/30 06:25:02;;;;;;;13.87;5.70;;;;;;;15.82;71.83;97497.69;4970278;28;20204;-76
2023/10/30 06:27:32;;;;;;;14.27;6.23;;;;;;;16.00;72.04;97504.41;4985826;28;20299;-71
2023/10/30 06:29:59;;;;;;;13.37;6.30;;;;;;;15.95;71.27;97484.72;4953809;28;20317;-73
2023/10/30 06:32:31;;;;;;;8.93;4.77;;;;;;;16.14;70.90;97493.97;4969163;28;20227;-78
2023/10/30 06:34:59;;;;;;;10.47;5.53;;;;;;;16.37;71.17;97513.47;4987754;28;20223;-76
2023/10/30 06:37:26;;;;;;;6.40;4.10;;;;;;;16.48;69.94;97523.28;4969125;28;20191;-73
2023/10/30 06:39:54;;;;;;;11.47;6.07;;;;;;;16.42;70.55;97526.25;4969487;28;20200;-76
2023/10/30 06:42:22;;;;;;;13.87;5.97;;;;;;;16.54;70.08;97520.31;4969608;28;20193;-69
2023/10/30 06:44:50;;;;;;;14.10;6.23;;;;;;;16.69;68.99;97517.56;4968081;28;20187;-77
2023/10/30 06:47:18;;;;;;;9.77;5.70;;;;;;;16.72;68.97;97488.63;4970180;28;20198;-72
2023/10/30 06:49:46;;;;;;;12.37;5.50;;;;;;;16.76;68.64;97505.81;4985573;28;20220;-74
2023/10/30 06:52:14;;;;;;;10.77;5.20;;;;;;;16.79;67.63;97482.09;4987864;28;20248;-70
2023/10/30 06:54:42;;;;;;;9.07;4.93;;;;;;;16.88;67.95;97507.63;4952460;28;20691;-72
2023/10/30 06:57:12;;;;;;;15.80;7.43;;;;;;;17.06;67.47;97500.41;4986373;28;20307;-73
2023/10/30 06:59:43;;;;;;;10.87;5.20;;;;;;;16.85;67.70;97468.59;4969100;28;20270;-76
2023/10/30 07:02:12;;;;;;;9.73;5.33;;;;;;;17.13;67.26;97501.69;4985999;28;20184;-72
2023/10/30 07:04:42;;;;;;;14.00;5.97;;;;;;;17.04;66.75;97452.56;4987189;28;20221;-73
2023/10/30 07:07:10;;;;;;;9.07;5.90;;;;;;;17.41;66.28;97506.81;4967869;28;20528;-71
2023/10/30 07:09:37;;;;;;;14.27;6.27;;;;;;;17.63;65.80;97514.13;4969590;28;20236;-71
2023/10/30 07:12:05;;;;;;;20.97;6.90;;;;;;;17.62;65.65;97504.59;4950794;28;20205;-71
2023/10/30 07:14:33;;;;;;;9.77;5.33;;;;;;;17.57;65.71;97498.81;4953284;28;20220;-75
2023/10/30 07:17:00;;;;;;;11.53;5.00;;;;;;;17.61;65.94;97495.06;4978849;28;20254;-73
2023/10/30 07:19:31;;;;;;;13.13;5.73;;;;;;;17.63;65.54;97501.88;4989404;28;20721;-73
2023/10/30 07:22:00;;;;;;;12.57;5.70;;;;;;;17.71;65.50;97491.72;4990741;28;20279;-72
2023/10/30 07:24:28;;;;;;;15.33;6.60;;;;;;;17.52;66.07;97470.31;4971369;28;20192;-73
2023/10/30 07:26:57;;;;;;;15.40;6.47;;;;;;;17.88;65.37;97508.94;4988666;28;20219;-71
2023/10/30 07:29:25;;;;;;;14.07;6.73;;;;;;;17.83;66.25;97496.13;4954899;28;20229;-71
2023/10/30 07:31:52;;;;;;;19.53;7.23;;;;;;;17.68;64.72;97463.09;4988777;28;20225;-71
2023/10/30 07:34:22;;;;;;;11.27;5.77;;;;;;;18.09;65.07;97506.63;4987596;28;20284;-71
2023/10/30 07:36:49;;;;;;;14.77;7.70;;;;;;;18.03;64.38;97481.69;4988959;28;20198;-70
2023/10/30 07:39:16;;;;;;;7.30;4.80;;;;;;;18.23;64.23;97496.88;4972546;28;20206;-72
2023/10/30 07:41:47;;;;;;;14.37;7.67;;;;;;;18.29;63.46;97485.97;4986603;28;20208;-70
2023/10/30 07:44:20;;;;;;;15.80;6.57;;;;;;;18.28;63.47;97496.56;4972553;28;20191;-72
2023/10/30 07:46:47;;;;;;;16.23;6.17;;;;;;;18.18;63.19;97464.88;4987077;28;20198;-69
2023/10/30 07:49:15;;;;;;;22.53;7.77;;;;;;;18.42;63.18;97485.97;4988348;28;20292;-69
2023/10/30 07:51:43;;;;;;;16.13;6.60;;;;;;;18.74;62.20;97505.53;4987171;28;20250;-77
2023/10/30 07:54:14;;;;;;;15.00;7.87;;;;;;;18.74;62.28;97495.03;4989168;28;20203;-73
2023/10/30 07:56:44;;;;;;;15.63;7.70;;;;;;;18.84;61.80;97498.69;4972248;28;20670;-71
2023/10/30 07:59:12;;;;;;;10.37;6.00;;;;;;;18.83;61.67;97478.66;4988012;28;20225;-70
2023/10/30 08:01:50;;;;;;;18.20;7.83;;;;;;;18.47;61.87;97447.16;4987703;28;20203;-71
2023/10/30 08:04:24;;;;;;;13.80;6.77;;;;;;;19.17;61.49;97514.63;4985894;28;20229;-73
2023/10/30 08:06:52;;;;;;;16.43;6.47;;;;;;;18.95;61.10;97467.28;4987767;28;20203;-71
2023/10/30 08:09:22;;;;;;;11.93;5.97;;;;;;;18.71;60.91;97398.19;4987944;28;20223;-72
2023/10/30 08:11:50;;;;;;;17.03;7.73;;;;;;;19.35;61.06;97484.44;4988715;28;20203;-73
2023/10/30 08:14:22;;;;;;;11.70;5.57;;;;;;;19.49;60.97;97510.50;4987900;28;20192;-73
2023/10/30 08:16:49;;;;;;;12.83;7.80;;;;;;;19.31;61.05;97488.19;4985801;28;20308;-72
2023/10/30 08:19:18;;;;;;;17.87;8.73;;;;;;;19.29;60.53;97450.72;4989163;28;20250;-75
2023/10/30 08:21:45;;;;;;;14.37;7.57;;;;;;;19.79;60.30;97496.91;4969641;28;20282;-73
2023/10/30 08:24:13;;;;;;;14.90;7.97;;;;;;;19.76;59.75;97481.38;4955103;28;20683;-74
2023/10/30 08:26:43;;;;;;;11.23;6.40;;;;;;;19.80;59.59;97474.09;4987273;28;20196;-71
2023/10/30 08:29:13;;;;;;;12.37;6.67;;;;;;;20.03;59.36;97499.47;4970515;28;20200;-71
2023/10/30 08:31:44;;;;;;;16.90;7.13;;;;;;;19.98;59.33;97485.81;4988870;28;20262;-73
2023/10/30 08:34:11;;;;;;;12.27;7.17;;;;;;;20.00;59.26;97495.28;4953730;28;20192;-71
2023/10/30 08:36:41;;;;;;;11.80;5.20;;;;;;;19.76;59.79;97485.78;4989006;28;20209;-71
2023/10/30 08:39:09;;;;;;;10.73;5.93;;;;;;;20.02;59.48;97492.53;4969325;28;20747;-71
2023/10/30 08:41:37;;;;;;;9.20;5.37;;;;;;;20.15;59.33;97490.66;4988518;28;20185;-73
2023/10/30 08:44:05;;;;;;;12.30;6.13;;;;;;;20.30;58.92;97481.59;4986781;28;20186;-70
2023/10/30 08:46:37;;;;;;;12.80;6.77;;;;;;;20.21;59.36;97470.00;4969897;28;20199;-76
2023/10/30 08:49:11;;;;;;;6.33;4.37;;;;;;;20.13;59.84;97456.53;4970600;28;20210;-71
2023/10/30 08:51:42;;;;;;;9.93;6.07;;;;;;;20.41;60.08;97468.44;4953660;28;20196;-69
2023/10/30 08:54:29;;;;;;;16.40;7.67;;;;;;;20.45;59.14;97448.81;4973576;28;20212;-70
2023/10/30 08:56:59;;;;;;;17.47;7.17;;;;;;;20.77;59.92;97480.50;4986286;28;20231;-69
2023/10/30 08:59:46;;;;;;;17.50;7.83;;;;;;;20.89;59.77;97480.38;4987802;28;20195;-73
2023/10/30 09:02:16;;;;;;;18.00;8.73;;;;;;;21.02;60.47;97486.34;4955050;28;20208;-72
2023/10/30 09:04:45;;;;;;;17.30;7.60;;;;;;;20.86;61.58;97453.41;4986104;28;20189;-70
2023/10/30 09:07:13;;;;;;;21.53;7.43;;;;;;;21.06;61.19;97479.84;4938363;28;20257;-71
2023/10/30 09:09:41;;;;;;;16.77;7.13;;;;;;;21.10;61.17;97466.44;4968274;28;20639;-72
2023/10/30 09:12:09;;;;;;;17.83;8.10;;;;;;;21.20;60.96;97460.31;4970227;28;20237;-71
2023/10/30 09:14:37;;;;;;;13.97;8.80;;;;;;;21.21;61.83;97469.03;4969268;28;20198;-75
2023/10/30 09:17:08;;;;;;;15.03;8.23;;;;;;;21.38;61.65;97476.41;4987457;28;20242;-74
2023/10/30 09:19:39;;;;;;;13.53;8.33;;;;;;;21.29;62.02;97450.84;4987248;28;20677;-77
2023/10/30 09:22:09;;;;;;;14.93;8.03;;;;;;;21.58;61.12;97480.88;4953039;28;20668;-76
2023/10/30 09:24:36;;;;;;;13.17;7.10;;;;;;;21.49;61.33;97479.00;4938815;28;20689;-73
2023/10/30 09:27:04;;;;;;;15.23;7.07;;;;;;;21.31;61.12;97449.72;4952577;28;20197;-76
2023/10/30 09:29:34;;;;;;;13.70;7.57;;;;;;;21.46;61.33;97469.53;4969830;28;20228;-73
2023/10/30 09:32:03;;;;;;;14.23;8.13;;;;;;;21.57;61.14;97468.66;4986097;28;20221;-75
2023/10/30 09:34:30;;;;;;;28.03;10.20;;;;;;;21.61;61.22;97449.84;4970635;28;20196;-75
2023/10/30 09:37:04;;;;;;;18.50;8.67;;;;;;;21.73;60.10;97432.13;4954679;28;20184;-76
2023/10/30 09:39:31;;;;;;;16.53;9.00;;;;;;;21.79;61.52;97455.34;4985396;28;20225;-77
2023/10/30 09:42:00;;;;;;;14.67;7.97;;;;;;;21.87;60.99;97452.94;4954361;28;20202;-73
2023/10/30 09:44:29;;;;;;;15.53;9.07;;;;;;;21.76;61.33;97434.53;4968833;28;20196;-73
2023/10/30 09:47:02;;;;;;;17.80;9.67;;;;;;;21.96;60.98;97444.25;4970071;28;20200;-77
2023/10/30 09:49:30;;;;;;;24.03;11.37;;;;;;;22.03;60.51;97429.56;4951470;28;20198;-71
2023/10/30 09:51:59;;;;;;;23.50;11.30;;;;;;;21.93;60.72;97419.97;4987512;28;20299;-72
2023/10/30 09:54:29;;;;;;;18.97;9.80;;;;;;;21.60;60.50;97365.59;4952573;28;20687;-74
2023/10/30 09:57:01;;;;;;;20.10;10.37;;;;;;;22.04;59.77;97420.69;4967738;28;20296;-72
2023/10/30 09:59:32;;;;;;;14.73;9.10;;;;;;;22.10;59.83;97412.25;4953607;28;20699;-72
2023/10/30 10:02:03;;;;;;;21.47;11.80;;;;;;;22.02;60.63;97404.16;4967473;28;20267;-78
2023/10/30 10:04:33;;;;;;;14.93;9.57;;;;;;;22.15;60.09;97409.22;4986820;28;20189;-77
2023/10/30 10:07:04;;;;;;;20.90;10.43;;;;;;;22.32;59.67;97408.56;4967826;28;20644;-74
2023/10/30 10:09:31;;;;;;;14.63;8.67;;;;;;;22.41;59.40;97394.59;4986236;28;20201;-76
2023/10/30 10:12:20;;;;;;;22.47;9.03;;;;;;;22.60;58.74;97398.16;4985433;28;20210;-77
2023/10/30 10:14:50;;;;;;;20.70;8.73;;;;;;;21.89;58.75;97340.25;4968941;28;20288;-74
2023/10/30 10:18:02;;;;;;;15.77;9.10;;;;;;;22.32;58.93;97396.22;4982725;28;20603;-75
2023/10/30 10:21:26;;;;;;;13.47;8.10;;;;;;;22.13;59.43;97375.06;4985276;28;20208;-78
2023/10/30 10:24:49;;;;;;;18.73;8.97;;;;;;;22.50;58.49;97409.63;4985143;28;20287;-75
2023/10/30 10:27:30;;;;;;;17.47;9.00;;;;;;;22.25;59.29;97397.75;4970145;28;20696;-74
2023/10/30 10:29:58;;;;;;;14.60;8.23;;;;;;;22.49;59.18;97400.03;4986230;28;20226;-77
2023/10/30 10:32:30;;;;;;;22.00;9.53;;;;;;;22.61;57.80;97394.53;4987565;28;20204;-74
2023/10/30 10:35:05;;;;;;;12.47;8.00;;;;;;;22.53;57.83;97354.75;4986898;28;20610;-76
2023/10/30 10:37:35;;;;;;;15.63;8.73;;;;;;;22.54;58.70;97389.91;4985373;28;20220;-77
2023/10/30 10:40:05;;;;;;;19.03;9.17;;;;;;;22.64;58.15;97399.56;4969366;28;20557;-73
2023/10/30 10:42:33;;;;;;;17.13;8.30;;;;;;;22.86;57.10;97401.13;4984936;28;20763;-74
2023/10/30 10:45:02;;;;;;;13.80;7.77;;;;;;;22.53;57.66;97378.50;4986647;28;20221;-74
2023/10/30 10:47:32;;;;;;;18.80;8.80;;;;;;;22.94;56.83;97387.22;4966811;28;20214;-72
2023/10/30 10:50:00;;;;;;;16.80;8.23;;;;;;;23.00;55.82;97344.44;4986130;28;20227;-75
2023/10/30 10:52:31;;;;;;;18.47;8.03;;;;;;;23.11;55.83;97354.84;4972345;28;20746;-72
2023/10/30 10:55:05;;;;;;;21.10;8.83;;;;;;;23.36;55.26;97367.50;4971713;28;20205;-70
2023/10/30 10:57:47;;;;;;;14.97;7.73;;;;;;;22.59;57.58;97354.25;4957041;28;20218;-73
2023/10/30 11:00:17;;;;;;;32.00;12.30;;;;;;;22.53;56.88;97316.97;4955553;28;20213;-73
2023/10/30 11:02:49;;;;;;;23.17;10.23;;;;;;;22.96;55.99;97362.34;4973036;28;20201;-73
2023/10/30 11:05:17;;;;;;;17.70;8.37;;;;;;;22.99;56.08;97353.31;4988884;28;20211;-71
2023/10/30 11:08:09;;;;;;;17.03;7.60;;;;;;;22.60;56.91;97326.03;4956860;28;20692;-76
2023/10/30 11:10:50;;;;;;;16.23;7.23;;;;;;;22.57;56.85;97352.66;4956785;28;20825;-77
2023/10/30 11:13:57;;;;;;;20.50;8.63;;;;;;;22.93;57.27;97361.78;4971761;28;20191;-75
2023/10/30 11:16:28;;;;;;;16.73;7.93;;;;;;;23.01;56.39;97356.66;4967992;28;20210;-71
2023/10/30 11:19:00;;;;;;;13.57;6.30;;;;;;;22.95;56.43;97325.50;4956130;28;20568;-71
2023/10/30 11:21:35;;;;;;;16.70;7.73;;;;;;;22.99;55.35;97317.16;4955732;28;20276;-71
2023/10/30 11:24:08;;;;;;;14.73;7.00;;;;;;;23.36;54.62;97331.34;4957017;28;20200;-71
2023/10/30 11:26:40;;;;;;;13.73;7.30;;;;;;;22.91;55.81;97290.63;4954051;28;20192;-71
2023/10/30 11:29:22;;;;;;;15.27;5.67;;;;;;;22.98;54.74;97288.25;4972521;28;20194;-73
2023/10/30 11:32:05;;;;;;;11.97;5.70;;;;;;;23.36;54.86;97335.78;4954623;28;20240;-78
2023/10/30 11:34:38;;;;;;;18.97;7.90;;;;;;;23.23;54.58;97320.19;4989242;28;20191;-73
2023/10/30 11:37:21;;;;;;;11.87;5.97;;;;;;;23.11;54.03;97279.03;4989307;28;20659;-78
2023/10/30 11:39:54;;;;;;;10.67;6.00;;;;;;;23.46;53.27;97283.72;4988596;28;20196;-76
2023/10/30 11:42:55;;;;;;;13.83;6.03;;;;;;;23.76;52.82;97294.06;4989015;28;20289;-72